createdAt,value
2022-09-07T00:00:54.270Z,1.20
2022-09-07T00:01:54.336Z,0.90
2022-09-07T00:02:54.371Z,1.30
2022-09-07T00:03:54.289Z,1.40
2022-09-07T00:04:54.243Z,1.10
2022-09-07T00:05:54.205Z,1.10
2022-09-07T00:06:54.221Z,1.30
2022-09-07T00:07:54.205Z,1.30
2022-09-07T00:08:54.206Z,1.30
2022-09-07T00:09:54.160Z,1.40
2022-09-07T00:10:54.153Z,1.00
2022-09-07T00:11:54.166Z,1.20
2022-09-07T00:12:54.150Z,1.10
2022-09-07T00:13:54.115Z,1.10
2022-09-07T00:14:54.106Z,1.20
2022-09-07T00:15:54.139Z,1.10
2022-09-07T00:16:54.138Z,1.30
2022-09-07T00:17:54.080Z,1.30
2022-09-07T00:18:54.062Z,1.20
2022-09-07T00:19:54.043Z,1.30
2022-09-07T00:20:54.021Z,1.10
2022-09-07T00:21:54.045Z,1.40
2022-09-07T00:22:56.626Z,1.00
2022-09-07T00:23:53.987Z,1.60
2022-09-07T00:24:53.948Z,1.20
2022-09-07T00:25:54.261Z,1.30
2022-09-07T00:26:53.918Z,1.20
2022-09-07T00:27:53.918Z,1.10
2022-09-07T00:28:53.904Z,1.50
2022-09-07T00:29:53.900Z,1.20
2022-09-07T00:30:53.892Z,1.20
2022-09-07T00:31:53.913Z,1.20
2022-09-07T00:32:53.869Z,1.30
2022-09-07T00:33:53.853Z,1.00
2022-09-07T00:34:53.834Z,1.20
2022-09-07T00:35:53.802Z,1.30
2022-09-07T00:36:53.816Z,1.40
2022-09-07T00:37:53.781Z,1.20
2022-09-07T00:38:53.777Z,1.50
2022-09-07T00:39:53.837Z,1.00
2022-09-07T00:40:53.732Z,1.70
2022-09-07T00:41:53.739Z,1.30
2022-09-07T00:42:53.722Z,0.90
2022-09-07T00:43:53.746Z,1.30
2022-09-07T00:44:53.680Z,1.20
2022-09-07T00:45:53.694Z,1.20
2022-09-07T00:46:53.730Z,0.90
2022-09-07T00:47:53.690Z,1.30
2022-09-07T00:48:53.648Z,1.40
2022-09-07T00:49:53.646Z,1.00
2022-09-07T00:50:53.609Z,1.30
2022-09-07T00:51:53.605Z,1.20
2022-09-07T00:52:53.581Z,1.20
2022-09-07T00:53:53.600Z,1.40
2022-09-07T00:54:53.567Z,1.50
2022-09-07T00:55:53.540Z,1.40
2022-09-07T00:56:53.587Z,1.20
2022-09-07T00:57:56.674Z,1.30
2022-09-07T00:58:53.521Z,1.10
2022-09-07T00:59:53.521Z,1.30
2022-09-07T01:00:53.470Z,1.10
2022-09-07T01:01:53.589Z,1.40
2022-09-07T01:02:53.588Z,1.30
2022-09-07T01:03:53.470Z,1.20
2022-09-07T01:04:53.431Z,1.40
2022-09-07T01:05:53.433Z,1.20
2022-09-07T01:06:53.410Z,1.20
2022-09-07T01:07:53.402Z,1.30
2022-09-07T01:08:53.393Z,1.30
2022-09-07T01:09:53.403Z,1.00
2022-09-07T01:10:53.335Z,1.30
2022-09-07T01:11:53.325Z,1.30
2022-09-07T01:12:53.345Z,1.40
2022-09-07T01:13:53.327Z,1.60
2022-09-07T01:14:53.313Z,1.50
2022-09-07T01:15:53.342Z,1.50
2022-09-07T01:16:53.318Z,1.10
2022-09-07T01:17:53.249Z,1.00
2022-09-07T01:18:53.240Z,1.20
2022-09-07T01:19:53.244Z,1.40
2022-09-07T01:20:53.221Z,1.30
2022-09-07T01:21:53.203Z,1.40
2022-09-07T01:22:53.199Z,1.00
2022-09-07T01:23:53.173Z,1.00
2022-09-07T01:24:53.175Z,1.30
2022-09-07T01:25:53.208Z,1.10
2022-09-07T01:26:53.169Z,1.60
2022-09-07T01:27:53.113Z,1.40
2022-09-07T01:28:53.111Z,1.30
2022-09-07T01:29:53.124Z,1.40
2022-09-07T01:30:53.121Z,1.00
2022-09-07T01:31:53.118Z,0.90
2022-09-07T01:32:53.099Z,1.10
2022-09-07T01:33:53.089Z,1.00
2022-09-07T01:34:53.088Z,1.30
2022-09-07T01:35:53.068Z,1.40
2022-09-07T01:36:53.060Z,1.20
2022-09-07T01:37:56.921Z,1.30
2022-09-07T01:38:53.068Z,1.10
2022-09-07T01:39:53.086Z,1.10
2022-09-07T01:40:52.971Z,1.10
2022-09-07T01:41:52.965Z,0.90
2022-09-07T01:42:52.917Z,1.20
2022-09-07T01:43:52.937Z,1.20
2022-09-07T01:44:52.913Z,1.10
2022-09-07T01:45:52.958Z,1.30
2022-09-07T01:46:52.883Z,1.30
2022-09-07T01:47:52.872Z,1.20
2022-09-07T01:48:52.845Z,1.20
2022-09-07T01:49:52.848Z,1.40
2022-09-07T01:50:52.806Z,1.00
2022-09-07T01:51:52.865Z,1.00
2022-09-07T01:52:55.845Z,1.20
2022-09-07T01:53:52.806Z,1.10
2022-09-07T01:54:52.791Z,1.10
2022-09-07T01:55:52.756Z,1.20
2022-09-07T01:56:52.726Z,1.30
2022-09-07T01:57:52.714Z,1.30
2022-09-07T01:58:52.728Z,0.90
2022-09-07T01:59:52.699Z,1.20
2022-09-07T02:00:52.716Z,1.50
2022-09-07T02:01:52.754Z,1.20
2022-09-07T02:02:52.726Z,1.20
2022-09-07T02:03:52.636Z,1.30
2022-09-07T02:04:52.652Z,1.20
2022-09-07T02:05:52.603Z,1.30
2022-09-07T02:06:52.629Z,1.10
2022-09-07T02:07:52.607Z,1.10
2022-09-07T02:08:52.576Z,1.40
2022-09-07T02:09:52.580Z,1.10
2022-09-07T02:10:52.589Z,1.20
2022-09-07T02:11:52.540Z,1.10
2022-09-07T02:12:52.521Z,1.40
2022-09-07T02:13:52.525Z,1.20
2022-09-07T02:14:52.916Z,1.20
2022-09-07T02:15:52.542Z,1.20
2022-09-07T02:16:52.492Z,1.00
2022-09-07T02:17:52.446Z,1.10
2022-09-07T02:18:52.438Z,1.00
2022-09-07T02:19:52.451Z,1.20
2022-09-07T02:20:52.861Z,1.10
2022-09-07T02:21:52.395Z,1.40
2022-09-07T02:22:52.416Z,1.30
2022-09-07T02:23:52.399Z,1.50
2022-09-07T02:24:52.394Z,1.30
2022-09-07T02:25:52.388Z,1.10
2022-09-07T02:26:52.374Z,1.10
2022-09-07T02:27:52.352Z,1.30
2022-09-07T02:28:52.306Z,1.30
2022-09-07T02:29:52.293Z,1.20
2022-09-07T02:30:52.347Z,1.20
2022-09-07T02:31:52.257Z,1.10
2022-09-07T02:32:52.271Z,1.30
2022-09-07T02:33:52.302Z,1.50
2022-09-07T02:34:52.263Z,1.20
2022-09-07T02:35:52.203Z,1.40
2022-09-07T02:36:52.239Z,1.70
2022-09-07T02:37:52.220Z,1.30
2022-09-07T02:38:52.173Z,1.50
2022-09-07T02:39:52.213Z,1.20
2022-09-07T02:40:52.191Z,1.20
2022-09-07T02:41:52.138Z,1.60
2022-09-07T02:42:55.813Z,1.50
2022-09-07T02:43:52.114Z,1.30
2022-09-07T02:44:52.093Z,1.40
2022-09-07T02:45:52.127Z,1.50
2022-09-07T02:46:52.107Z,1.20
2022-09-07T02:47:52.054Z,1.50
2022-09-07T02:48:52.045Z,1.60
2022-09-07T02:49:52.062Z,1.50
2022-09-07T02:50:52.015Z,1.40
2022-09-07T02:51:52.009Z,1.40
2022-09-07T02:52:52.019Z,1.50
2022-09-07T02:53:51.997Z,1.00
2022-09-07T02:54:51.975Z,1.30
2022-09-07T02:55:51.964Z,1.50
2022-09-07T02:56:51.928Z,1.30
2022-09-07T02:57:51.935Z,1.50
2022-09-07T02:58:51.925Z,1.40
2022-09-07T02:59:51.915Z,1.60
2022-09-07T03:00:51.879Z,1.40
2022-09-07T03:01:51.953Z,1.80
2022-09-07T03:02:51.981Z,1.60
2022-09-07T03:03:51.898Z,1.20
2022-09-07T03:04:51.828Z,1.60
2022-09-07T03:05:51.824Z,1.60
2022-09-07T03:06:51.836Z,1.30
2022-09-07T03:07:51.802Z,1.40
2022-09-07T03:08:51.777Z,1.70
2022-09-07T03:09:51.756Z,1.40
2022-09-07T03:10:51.779Z,1.40
2022-09-07T03:11:51.723Z,1.40
2022-09-07T03:12:51.753Z,1.60
2022-09-07T03:13:51.727Z,1.50
2022-09-07T03:14:51.712Z,2.20
2022-09-07T03:15:55.744Z,1.60
2022-09-07T03:16:51.990Z,1.50
2022-09-07T03:17:51.668Z,1.60
2022-09-07T03:18:51.659Z,1.40
2022-09-07T03:19:51.653Z,1.60
2022-09-07T03:20:51.637Z,1.50
2022-09-07T03:21:51.615Z,1.20
2022-09-07T03:22:51.598Z,1.20
2022-09-07T03:23:52.023Z,1.20
2022-09-07T03:24:51.575Z,1.70
2022-09-07T03:25:51.589Z,1.20
2022-09-07T03:26:51.534Z,1.30
2022-09-07T03:27:51.528Z,1.40
2022-09-07T03:28:51.517Z,1.70
2022-09-07T03:29:51.517Z,1.60
2022-09-07T03:30:51.548Z,1.80
2022-09-07T03:31:51.495Z,1.60
2022-09-07T03:32:51.480Z,1.40
2022-09-07T03:33:51.458Z,1.60
2022-09-07T03:34:51.459Z,2.00
2022-09-07T03:35:51.448Z,1.50
2022-09-07T03:36:51.419Z,1.70
2022-09-07T03:37:51.386Z,1.30
2022-09-07T03:38:51.378Z,1.50
2022-09-07T03:39:51.408Z,1.30
2022-09-07T03:40:51.356Z,1.40
2022-09-07T03:41:51.355Z,1.70
2022-09-07T03:42:51.343Z,1.50
2022-09-07T03:43:51.327Z,1.50
2022-09-07T03:44:51.324Z,1.50
2022-09-07T03:45:51.385Z,1.90
2022-09-07T03:46:51.285Z,1.50
2022-09-07T03:47:51.272Z,1.80
2022-09-07T03:48:51.268Z,1.60
2022-09-07T03:49:51.228Z,1.60
2022-09-07T03:50:51.237Z,1.70
2022-09-07T03:51:51.212Z,1.80
2022-09-07T03:52:51.214Z,1.70
2022-09-07T03:53:51.179Z,1.70
2022-09-07T03:54:51.220Z,1.70
2022-09-07T03:55:51.146Z,1.70
2022-09-07T03:56:51.168Z,1.50
2022-09-07T03:57:51.159Z,1.60
2022-09-07T03:58:51.107Z,1.50
2022-09-07T03:59:51.117Z,1.80
2022-09-07T04:00:51.083Z,2.10
2022-09-07T04:01:51.128Z,1.90
2022-09-07T04:02:51.127Z,1.70
2022-09-07T04:03:51.054Z,1.80
2022-09-07T04:04:51.036Z,1.60
2022-09-07T04:05:51.026Z,2.50
2022-09-07T04:06:51.032Z,1.60
2022-09-07T04:07:51.029Z,1.70
2022-09-07T04:08:50.975Z,1.70
2022-09-07T04:09:50.969Z,1.50
2022-09-07T04:10:50.959Z,1.70
2022-09-07T04:11:50.989Z,2.10
2022-09-07T04:12:50.943Z,2.20
2022-09-07T04:13:50.946Z,1.50
2022-09-07T04:14:50.945Z,1.60
2022-09-07T04:15:53.801Z,1.70
2022-09-07T04:16:51.058Z,2.00
2022-09-07T04:17:50.877Z,1.80
2022-09-07T04:18:50.878Z,2.00
2022-09-07T04:19:50.861Z,1.90
2022-09-07T04:20:50.850Z,1.70
2022-09-07T04:21:50.802Z,1.40
2022-09-07T04:22:54.213Z,1.80
2022-09-07T04:23:50.770Z,1.50
2022-09-07T04:24:50.765Z,1.70
2022-09-07T04:25:50.767Z,1.90
2022-09-07T04:26:50.765Z,1.80
2022-09-07T04:27:50.751Z,1.80
2022-09-07T04:28:50.729Z,2.10
2022-09-07T04:29:50.693Z,1.90
2022-09-07T04:30:50.744Z,2.10
2022-09-07T04:31:50.678Z,2.00
2022-09-07T04:32:50.684Z,1.90
2022-09-07T04:33:50.669Z,1.80
2022-09-07T04:34:50.630Z,1.80
2022-09-07T04:35:50.628Z,1.70
2022-09-07T04:36:50.638Z,2.30
2022-09-07T04:37:50.592Z,1.70
2022-09-07T04:38:50.581Z,1.80
2022-09-07T04:39:50.646Z,2.00
2022-09-07T04:40:50.602Z,1.90
2022-09-07T04:41:50.554Z,1.80
2022-09-07T04:42:50.523Z,2.00
2022-09-07T04:43:50.506Z,1.90
2022-09-07T04:44:50.541Z,1.90
2022-09-07T04:45:50.599Z,2.20
2022-09-07T04:46:50.510Z,1.50
2022-09-07T04:47:50.486Z,2.00
2022-09-07T04:48:50.473Z,2.10
2022-09-07T04:49:50.473Z,1.80
2022-09-07T04:50:50.441Z,1.80
2022-09-07T04:51:50.399Z,1.60
2022-09-07T04:52:50.401Z,1.90
2022-09-07T04:53:50.389Z,2.00
2022-09-07T04:54:50.389Z,1.80
2022-09-07T04:55:50.367Z,1.80
2022-09-07T04:56:50.364Z,1.70
2022-09-07T04:57:50.332Z,2.10
2022-09-07T04:58:50.347Z,1.70
2022-09-07T04:59:50.294Z,1.70
2022-09-07T05:00:50.350Z,1.70
2022-09-07T05:01:50.283Z,2.20
2022-09-07T05:02:50.343Z,1.90
2022-09-07T05:03:50.260Z,2.30
2022-09-07T05:04:50.240Z,1.70
2022-09-07T05:05:50.250Z,1.80
2022-09-07T05:06:50.218Z,2.10
2022-09-07T05:07:50.207Z,1.90
2022-09-07T05:08:50.177Z,2.10
2022-09-07T05:09:50.179Z,2.30
2022-09-07T05:10:50.168Z,2.20
2022-09-07T05:11:50.173Z,2.90
2022-09-07T05:12:50.145Z,1.60
2022-09-07T05:13:50.107Z,1.70
2022-09-07T05:14:50.152Z,2.00
2022-09-07T05:15:50.077Z,1.90
2022-09-07T05:16:50.224Z,1.90
2022-09-07T05:17:50.069Z,2.00
2022-09-07T05:18:50.068Z,2.20
2022-09-07T05:19:50.042Z,1.50
2022-09-07T05:20:50.044Z,1.70
2022-09-07T05:21:50.030Z,2.10
2022-09-07T05:22:49.990Z,2.10
2022-09-07T05:23:49.993Z,2.20
2022-09-07T05:24:49.983Z,1.80
2022-09-07T05:25:49.963Z,1.80
2022-09-07T05:26:49.960Z,1.90
2022-09-07T05:27:49.954Z,2.10
2022-09-07T05:28:50.422Z,1.80
2022-09-07T05:30:06.157Z,2.00
2022-09-07T05:31:49.916Z,2.10
2022-09-07T05:32:49.859Z,2.30
2022-09-07T05:34:52.841Z,2.20
2022-09-07T05:35:49.831Z,2.70
2022-09-07T05:36:49.826Z,2.20
2022-09-07T05:37:49.847Z,1.90
2022-09-07T05:38:49.798Z,2.10
2022-09-07T05:39:49.809Z,1.80
2022-09-07T05:40:49.763Z,2.30
2022-09-07T05:41:49.735Z,1.90
2022-09-07T05:42:49.726Z,2.00
2022-09-07T05:44:49.744Z,2.40
2022-09-07T05:45:49.758Z,2.60
2022-09-07T05:46:49.667Z,2.00
2022-09-07T05:47:49.648Z,1.90
2022-09-07T05:48:49.646Z,2.50
2022-09-07T05:49:51.933Z,2.00
2022-09-07T05:50:49.679Z,1.80
2022-09-07T05:51:49.628Z,2.70
2022-09-07T05:52:49.589Z,2.20
2022-09-07T05:53:49.601Z,2.10
2022-09-07T05:54:49.584Z,2.20
2022-09-07T05:55:49.563Z,2.40
2022-09-07T05:56:49.555Z,2.00
2022-09-07T05:57:49.541Z,2.00
2022-09-07T05:58:49.550Z,2.20
2022-09-07T05:59:49.511Z,2.20
2022-09-07T06:00:49.492Z,2.20
2022-09-07T06:01:49.641Z,2.20
2022-09-07T06:02:49.622Z,2.70
2022-09-07T06:03:49.446Z,1.70
2022-09-07T06:04:49.440Z,2.00
2022-09-07T06:05:49.450Z,2.20
2022-09-07T06:07:17.687Z,2.20
2022-09-07T06:07:49.409Z,2.10
2022-09-07T06:08:49.381Z,2.40
2022-09-07T06:10:49.383Z,2.10
2022-09-07T06:11:49.364Z,2.10
2022-09-07T06:12:49.604Z,2.10
2022-09-07T06:13:49.342Z,2.00
2022-09-07T06:14:49.315Z,2.20
2022-09-07T06:15:49.292Z,2.40
2022-09-07T06:16:49.343Z,1.90
2022-09-07T06:17:49.275Z,2.00
2022-09-07T06:18:49.244Z,2.40
2022-09-07T06:19:49.286Z,2.40
2022-09-07T06:20:49.223Z,2.20
2022-09-07T06:21:49.229Z,2.40
2022-09-07T06:22:49.233Z,2.30
2022-09-07T06:23:49.211Z,1.90
2022-09-07T06:24:49.182Z,2.40
2022-09-07T06:25:49.162Z,2.40
2022-09-07T06:26:49.154Z,2.50
2022-09-07T06:27:49.135Z,2.00
2022-09-07T06:28:51.403Z,2.30
2022-09-07T06:29:49.109Z,2.40
2022-09-07T06:30:49.110Z,2.40
2022-09-07T06:32:49.091Z,2.50
2022-09-07T06:33:49.075Z,2.30
2022-09-07T06:34:49.049Z,2.30
2022-09-07T06:35:49.074Z,2.40
2022-09-07T06:36:49.021Z,2.00
2022-09-07T06:37:49.032Z,2.20
2022-09-07T06:38:49.000Z,2.10
2022-09-07T06:39:49.074Z,2.50
2022-09-07T06:40:49.035Z,2.00
2022-09-07T06:42:04.391Z,2.10
2022-09-07T06:42:48.968Z,2.50
2022-09-07T06:43:48.936Z,2.10
2022-09-07T06:44:48.921Z,2.20
2022-09-07T06:45:48.990Z,2.70
2022-09-07T06:47:04.731Z,2.40
2022-09-07T06:47:48.889Z,2.30
2022-09-07T06:48:48.890Z,2.40
2022-09-07T06:49:48.857Z,2.30
2022-09-07T06:50:48.844Z,2.60
2022-09-07T06:51:48.840Z,2.90
2022-09-07T06:53:49.079Z,2.40
2022-09-07T06:55:48.786Z,2.50
2022-09-07T06:56:48.743Z,2.50
2022-09-07T06:57:48.738Z,2.20
2022-09-07T06:58:48.783Z,2.80
2022-09-07T06:59:48.727Z,2.80
2022-09-07T07:00:48.767Z,3.00
2022-09-07T07:01:48.694Z,2.80
2022-09-07T07:02:48.724Z,2.50
2022-09-07T07:03:48.664Z,2.60
2022-09-07T07:04:48.693Z,3.10
2022-09-07T07:05:48.675Z,2.60
2022-09-07T07:06:48.609Z,2.30
2022-09-07T07:07:48.633Z,2.60
2022-09-07T07:08:48.617Z,2.70
2022-09-07T07:09:48.621Z,3.20
2022-09-07T07:10:48.585Z,2.60
2022-09-07T07:11:48.601Z,3.10
2022-09-07T07:12:48.560Z,2.60
2022-09-07T07:13:48.567Z,2.60
2022-09-07T07:14:48.516Z,2.50
2022-09-07T07:15:48.528Z,2.80
2022-09-07T07:16:48.629Z,2.60
2022-09-07T07:17:56.092Z,2.70
2022-09-07T07:18:48.479Z,3.00
2022-09-07T07:19:48.477Z,3.00
2022-09-07T07:20:48.511Z,2.60
2022-09-07T07:22:10.907Z,2.80
2022-09-07T07:22:48.457Z,2.50
2022-09-07T07:23:48.448Z,2.40
2022-09-07T07:24:48.468Z,2.70
2022-09-07T07:25:48.413Z,2.40
2022-09-07T07:26:48.423Z,2.70
2022-09-07T07:27:48.411Z,17.60
2022-09-07T07:29:04.290Z,4.50
2022-09-07T07:29:48.339Z,8.00
2022-09-07T07:30:48.370Z,6.80
2022-09-07T07:31:48.300Z,5.10
2022-09-07T07:32:48.331Z,2.90
2022-09-07T07:33:48.400Z,2.70
2022-09-07T07:34:48.248Z,2.80
2022-09-07T07:35:48.320Z,2.80
2022-09-07T07:36:48.221Z,2.50
2022-09-07T07:37:48.236Z,3.10
2022-09-07T07:39:03.587Z,2.30
2022-09-07T07:41:57.401Z,2.70
2022-09-07T07:42:48.171Z,2.20
2022-09-07T07:43:48.143Z,2.70
2022-09-07T07:44:48.691Z,2.60
2022-09-07T07:45:55.515Z,3.20
2022-09-07T07:46:48.197Z,2.60
2022-09-07T07:47:48.100Z,2.90
2022-09-07T07:48:48.072Z,2.50
2022-09-07T07:49:48.276Z,3.00
2022-09-07T07:50:48.037Z,2.60
2022-09-07T07:53:41.068Z,2.70
2022-09-07T07:53:48.012Z,3.30
2022-09-07T07:54:48.002Z,3.20
2022-09-07T07:55:48.027Z,2.40
2022-09-07T07:56:47.975Z,2.80
2022-09-07T07:57:48.037Z,2.80
2022-09-07T07:58:47.975Z,2.80
2022-09-07T07:59:47.964Z,2.80
2022-09-07T08:00:56.050Z,2.80
2022-09-07T08:01:48.009Z,2.80
2022-09-07T08:02:47.919Z,3.00
2022-09-07T08:03:47.891Z,3.00
2022-09-07T08:04:47.868Z,8.20
2022-09-07T08:05:47.841Z,5.90
2022-09-07T08:06:47.872Z,3.60
2022-09-07T08:07:47.824Z,3.30
2022-09-07T08:08:47.793Z,8.00
2022-09-07T08:09:47.825Z,6.30
2022-09-07T08:10:47.904Z,3.60
2022-09-07T08:11:47.818Z,3.50
2022-09-07T08:12:47.762Z,2.70
2022-09-07T08:13:47.730Z,2.80
2022-09-07T08:14:47.751Z,3.00
2022-09-07T08:15:47.751Z,3.10
2022-09-07T08:16:47.741Z,4.80
2022-09-07T08:17:47.712Z,3.00
2022-09-07T08:18:47.695Z,3.50
2022-09-07T08:19:47.739Z,3.10
2022-09-07T08:20:48.425Z,2.90
2022-09-07T08:21:47.723Z,2.90
2022-09-07T08:22:47.657Z,3.00
2022-09-07T08:23:47.600Z,2.60
2022-09-07T08:24:47.603Z,3.00
2022-09-07T08:25:47.602Z,3.30
2022-09-07T08:26:47.590Z,2.50
2022-09-07T08:27:47.572Z,2.90
2022-09-07T08:28:47.559Z,2.80
2022-09-07T08:29:47.537Z,3.20
2022-09-07T08:30:47.523Z,3.60
2022-09-07T08:31:47.594Z,3.10
2022-09-07T08:32:47.541Z,2.50
2022-09-07T08:33:47.485Z,3.10
2022-09-07T08:34:47.476Z,2.80
2022-09-07T08:35:47.506Z,2.90
2022-09-07T08:36:47.442Z,3.00
2022-09-07T08:37:47.445Z,2.90
2022-09-07T08:38:47.435Z,3.40
2022-09-07T08:39:47.482Z,3.30
2022-09-07T08:40:47.401Z,2.90
2022-09-07T08:41:47.377Z,2.50
2022-09-07T08:42:47.390Z,2.80
2022-09-07T08:43:49.206Z,3.10
2022-09-07T08:44:47.334Z,3.20
2022-09-07T08:45:47.367Z,3.10
2022-09-07T08:46:47.452Z,3.00
2022-09-07T08:47:47.316Z,2.70
2022-09-07T08:48:47.287Z,3.20
2022-09-07T08:49:47.308Z,2.90
2022-09-07T08:50:47.291Z,2.80
2022-09-07T08:51:47.275Z,3.00
2022-09-07T08:52:47.252Z,2.90
2022-09-07T08:53:47.323Z,3.30
2022-09-07T08:54:47.198Z,6.90
2022-09-07T08:55:47.205Z,15.30
2022-09-07T08:57:47.195Z,6.20
2022-09-07T08:58:49.855Z,3.00
2022-09-07T08:59:47.157Z,4.20
2022-09-07T09:00:47.134Z,3.50
2022-09-07T09:02:27.132Z,3.50
2022-09-07T09:03:28.753Z,2.60
2022-09-07T09:05:47.181Z,3.50
2022-09-07T09:06:47.159Z,2.70
2022-09-07T09:07:47.048Z,3.00
2022-09-07T09:08:47.050Z,3.40
2022-09-07T09:09:47.033Z,3.50
2022-09-07T09:10:47.047Z,3.30
2022-09-07T09:11:47.030Z,3.60
2022-09-07T09:12:46.987Z,3.20
2022-09-07T09:13:46.978Z,3.80
2022-09-07T09:14:46.983Z,3.30
2022-09-07T09:15:47.006Z,3.40
2022-09-07T09:16:46.947Z,3.20
2022-09-07T09:17:46.953Z,3.00
2022-09-07T09:18:46.928Z,3.10
2022-09-07T09:19:46.915Z,3.10
2022-09-07T09:20:46.905Z,3.10
2022-09-07T09:21:46.966Z,2.90
2022-09-07T09:22:46.872Z,2.90
2022-09-07T09:23:46.848Z,3.10
2022-09-07T09:24:46.865Z,2.80
2022-09-07T09:25:46.836Z,3.40
2022-09-07T09:26:46.891Z,3.20
2022-09-07T09:27:46.807Z,3.40
2022-09-07T09:28:46.774Z,2.90
2022-09-07T09:29:46.767Z,3.20
2022-09-07T09:30:46.916Z,3.00
2022-09-07T09:31:46.839Z,3.60
2022-09-07T09:32:46.769Z,3.20
2022-09-07T09:33:46.754Z,3.30
2022-09-07T09:34:46.723Z,3.50
2022-09-07T09:35:46.694Z,3.50
2022-09-07T09:36:46.704Z,3.40
2022-09-07T09:37:46.726Z,3.50
2022-09-07T09:38:46.669Z,3.00
2022-09-07T09:39:49.022Z,3.50
2022-09-07T09:40:46.642Z,3.50
2022-09-07T09:41:46.647Z,3.50
2022-09-07T09:42:46.606Z,3.20
2022-09-07T09:43:46.632Z,3.70
2022-09-07T09:44:46.608Z,3.90
2022-09-07T09:46:47.012Z,3.20
2022-09-07T09:47:46.607Z,3.30
2022-09-07T09:48:46.664Z,3.50
2022-09-07T09:49:46.528Z,3.60
2022-09-07T09:52:51.579Z,3.60
2022-09-07T09:53:46.482Z,4.10
2022-09-07T09:54:46.464Z,3.20
2022-09-07T09:55:46.481Z,3.80
2022-09-07T09:56:46.437Z,3.40
2022-09-07T09:59:04.858Z,3.60
2022-09-07T10:00:08.822Z,3.80
2022-09-07T10:04:46.364Z,4.20
2022-09-07T10:05:46.407Z,9.60
2022-09-07T10:06:46.313Z,13.40
2022-09-07T10:07:46.324Z,3.20
2022-09-07T10:08:46.326Z,3.70
2022-09-07T10:09:46.297Z,4.20
2022-09-07T10:10:46.292Z,3.80
2022-09-07T10:12:46.262Z,3.80
2022-09-07T10:13:46.848Z,3.90
2022-09-07T10:14:46.273Z,3.90
2022-09-07T10:15:46.257Z,3.30
2022-09-07T10:16:46.229Z,3.60
2022-09-07T10:17:46.200Z,3.40
2022-09-07T10:18:46.175Z,3.50
2022-09-07T10:19:46.185Z,3.40
2022-09-07T10:20:46.160Z,3.40
2022-09-07T10:21:46.136Z,3.50
2022-09-07T10:22:49.664Z,3.40
2022-09-07T10:23:46.349Z,3.50
2022-09-07T10:24:46.126Z,3.60
2022-09-07T10:25:46.154Z,3.70
2022-09-07T10:26:46.090Z,4.00
2022-09-07T10:27:46.089Z,3.70
2022-09-07T10:29:46.093Z,4.00
2022-09-07T10:30:46.103Z,4.30
2022-09-07T10:31:46.022Z,3.70
2022-09-07T10:32:46.032Z,4.00
2022-09-07T10:34:25.798Z,3.90
2022-09-07T10:34:46.000Z,3.90
2022-09-07T10:35:45.958Z,4.10
2022-09-07T10:36:45.983Z,3.60
2022-09-07T10:37:45.939Z,4.00
2022-09-07T10:38:45.928Z,4.80
2022-09-07T10:39:48.277Z,3.90
2022-09-07T10:40:45.904Z,4.60
2022-09-07T10:41:45.909Z,4.10
2022-09-07T10:43:45.919Z,4.30
2022-09-07T10:44:45.893Z,4.40
2022-09-07T10:45:45.858Z,4.10
2022-09-07T10:47:01.182Z,4.30
2022-09-07T10:47:45.812Z,4.20
2022-09-07T10:48:45.815Z,3.90
2022-09-07T10:50:46.033Z,4.20
2022-09-07T10:51:45.769Z,4.80
2022-09-07T10:52:45.791Z,4.60
2022-09-07T10:53:45.735Z,4.00
2022-09-07T10:54:45.756Z,4.50
2022-09-07T10:55:45.784Z,4.00
2022-09-07T10:56:45.781Z,4.40
2022-09-07T10:57:49.037Z,4.60
2022-09-07T10:59:01.856Z,4.40
2022-09-07T11:00:45.671Z,4.40
2022-09-07T11:01:45.832Z,4.70
2022-09-07T11:03:24.970Z,4.90
2022-09-07T11:03:45.945Z,4.30
2022-09-07T11:04:45.740Z,4.10
2022-09-07T11:05:46.504Z,4.20
2022-09-07T11:06:45.820Z,4.50
2022-09-07T11:07:45.688Z,4.50
2022-09-07T11:09:45.552Z,4.60
2022-09-07T11:10:45.534Z,4.00
2022-09-07T11:12:01.453Z,4.20
2022-09-07T11:12:45.525Z,4.60
2022-09-07T11:14:11.442Z,7.10
2022-09-07T11:14:45.486Z,5.60
2022-09-07T11:15:45.521Z,8.30
2022-09-07T11:16:52.647Z,4.50
2022-09-07T11:17:48.325Z,7.20
2022-09-07T11:18:45.446Z,4.90
2022-09-07T11:19:45.437Z,5.50
2022-09-07T11:20:45.412Z,4.90
2022-09-07T11:22:00.782Z,5.10
2022-09-07T11:22:45.387Z,5.10
2022-09-07T11:23:45.512Z,4.70
2022-09-07T11:24:45.463Z,5.00
2022-09-07T11:25:46.671Z,4.90
2022-09-07T11:26:45.351Z,4.40
2022-09-07T11:27:45.309Z,5.40
2022-09-07T11:28:45.615Z,4.70
2022-09-07T11:29:45.271Z,5.00
2022-09-07T11:30:45.317Z,5.10
2022-09-07T11:31:45.263Z,4.30
2022-09-07T11:32:45.256Z,4.30
2022-09-07T11:34:23.686Z,4.40
2022-09-07T11:34:45.345Z,4.70
2022-09-07T11:35:45.198Z,4.60
2022-09-07T11:36:45.204Z,4.10
2022-09-07T11:37:45.232Z,4.60
2022-09-07T11:38:45.249Z,3.80
2022-09-07T11:39:45.690Z,4.10
2022-09-07T11:40:45.191Z,3.70
2022-09-07T11:41:45.137Z,4.00
2022-09-07T11:42:45.402Z,4.30
2022-09-07T11:43:45.150Z,4.30
2022-09-07T11:44:45.105Z,4.50
2022-09-07T11:45:45.074Z,4.30
2022-09-07T11:46:45.527Z,4.60
2022-09-07T11:47:45.316Z,4.70
2022-09-07T11:48:45.112Z,5.50
2022-09-07T11:49:50.805Z,8.40
2022-09-07T11:50:45.308Z,4.70
2022-09-07T11:51:45.021Z,4.80
2022-09-07T11:52:44.983Z,4.60
2022-09-07T11:53:45.046Z,4.40
2022-09-07T11:54:44.968Z,4.20
2022-09-07T11:55:44.959Z,5.10
2022-09-07T11:56:45.647Z,4.40
2022-09-07T11:57:44.918Z,4.60
2022-09-07T11:58:44.924Z,4.60
2022-09-07T11:59:44.901Z,4.70
2022-09-07T12:00:44.893Z,4.50
2022-09-07T12:01:44.887Z,4.60
2022-09-07T12:02:58.842Z,4.30
2022-09-07T12:03:44.984Z,4.80
2022-09-07T12:04:44.889Z,4.60
2022-09-07T12:05:44.816Z,4.90
2022-09-07T12:06:44.857Z,4.80
2022-09-07T12:07:44.818Z,4.60
2022-09-07T12:08:44.845Z,4.60
2022-09-07T12:09:44.761Z,4.50
2022-09-07T12:10:44.750Z,4.80
2022-09-07T12:11:44.749Z,4.40
2022-09-07T12:12:44.751Z,4.50
2022-09-07T12:13:44.807Z,4.50
2022-09-07T12:14:44.746Z,5.20
2022-09-07T12:15:45.025Z,9.10
2022-09-07T12:16:44.709Z,11.60
2022-09-07T12:17:44.670Z,20.80
2022-09-07T12:18:44.688Z,13.10
2022-09-07T12:19:44.641Z,4.90
2022-09-07T12:20:45.165Z,4.20
2022-09-07T12:21:44.944Z,4.80
2022-09-07T12:22:44.667Z,4.50
2022-09-07T12:23:44.604Z,4.00
2022-09-07T12:24:44.569Z,4.10
2022-09-07T12:25:44.682Z,4.70
2022-09-07T12:26:44.550Z,4.70
2022-09-07T12:27:44.581Z,4.50
2022-09-07T12:28:44.766Z,4.80
2022-09-07T12:29:45.660Z,4.60
2022-09-07T12:30:44.692Z,4.70
2022-09-07T12:31:57.539Z,4.80
2022-09-07T12:33:00.191Z,4.40
2022-09-07T12:33:44.962Z,4.30
2022-09-07T12:34:44.568Z,4.50
2022-09-07T12:35:44.429Z,4.30
2022-09-07T12:36:44.657Z,4.50
2022-09-07T12:37:44.512Z,3.70
2022-09-07T12:38:44.556Z,4.20
2022-09-07T12:39:44.441Z,4.40
2022-09-07T12:40:44.428Z,4.30
2022-09-07T12:41:44.768Z,4.40
2022-09-07T12:42:44.839Z,4.70
2022-09-07T12:43:44.343Z,4.60
2022-09-07T12:44:44.524Z,4.40
2022-09-07T12:45:44.322Z,4.50
2022-09-07T12:46:44.855Z,4.10
2022-09-07T12:47:44.291Z,4.40
2022-09-07T12:48:44.285Z,4.20
2022-09-07T12:49:44.270Z,4.10
2022-09-07T12:50:44.304Z,4.60
2022-09-07T12:52:03.258Z,7.10
2022-09-07T12:52:44.217Z,6.40
2022-09-07T12:53:44.206Z,4.40
2022-09-07T12:54:44.204Z,5.90
2022-09-07T12:56:44.988Z,4.60
2022-09-07T12:57:44.160Z,4.40
2022-09-07T12:58:44.156Z,4.30
2022-09-07T12:59:44.145Z,4.50
2022-09-07T13:00:44.115Z,4.40
2022-09-07T13:01:44.283Z,4.60
2022-09-07T13:02:44.203Z,4.20
2022-09-07T13:03:52.117Z,4.40
2022-09-07T13:04:44.071Z,4.20
2022-09-07T13:05:44.097Z,4.50
2022-09-07T13:07:44.067Z,4.50
2022-09-07T13:08:44.043Z,5.10
2022-09-07T13:09:44.020Z,6.40
2022-09-07T13:10:43.997Z,6.20
2022-09-07T13:11:44.030Z,4.20
2022-09-07T13:12:59.345Z,6.40
2022-09-07T13:14:43.993Z,8.10
2022-09-07T13:15:45.565Z,6.90
2022-09-07T13:17:44.165Z,4.80
2022-09-07T13:18:43.956Z,4.10
2022-09-07T13:19:43.873Z,4.70
2022-09-07T13:20:43.988Z,4.60
2022-09-07T13:21:43.865Z,8.00
2022-09-07T13:22:43.893Z,4.60
2022-09-07T13:23:45.461Z,4.10
2022-09-07T13:24:46.505Z,4.00
2022-09-07T13:25:43.809Z,4.60
2022-09-07T13:26:45.438Z,6.40
2022-09-07T13:27:43.764Z,7.40
2022-09-07T13:28:43.789Z,4.30
2022-09-07T13:29:43.759Z,4.30
2022-09-07T13:30:43.799Z,4.30
2022-09-07T13:31:43.738Z,4.30
2022-09-07T13:33:43.698Z,4.20
2022-09-07T13:34:43.723Z,4.20
2022-09-07T13:35:43.662Z,5.20
2022-09-07T13:36:43.649Z,4.30
2022-09-07T13:37:43.665Z,4.40
2022-09-07T13:38:43.711Z,4.80
2022-09-07T13:39:43.745Z,5.80
2022-09-07T13:40:43.698Z,4.20
2022-09-07T13:41:43.831Z,5.10
2022-09-07T13:42:43.607Z,4.70
2022-09-07T13:43:43.595Z,4.30
2022-09-07T13:44:43.600Z,5.90
2022-09-07T13:45:43.628Z,4.40
2022-09-07T13:46:43.600Z,4.40
2022-09-07T13:47:43.560Z,4.20
2022-09-07T13:48:43.515Z,4.40
2022-09-07T13:49:43.493Z,3.90
2022-09-07T13:50:43.531Z,4.10